CST,Max TemperatureF,Mean TemperatureF,Min TemperatureF,Max Dew PointF,MeanDew PointF,Min DewpointF,Max Humidity, Mean Humidity, Min Humidity, Max Sea Level PressureIn, Mean Sea Level PressureIn, Min Sea Level PressureIn, Max VisibilityMiles, Mean VisibilityMiles, Min VisibilityMiles, Max Wind SpeedMPH, Mean Wind SpeedMPH, Max Gust SpeedMPH,PrecipitationIn, CloudCover, Events, WindDirDegrees
2014-2-1,19,4,-11,10,-1,-17,90,76,60,30.15,30.02,29.94,10,10,2,8,1,,0.00,5,Snow,271
2014-2-2,12,-3,-18,5,-9,-24,89,72,46,30.32,30.26,30.14,10,10,10,9,2,,0.00,0,Snow,263
2014-2-3,23,0,-22,8,-8,-29,88,67,47,30.34,30.28,30.22,10,10,10,10,2,,0.00,0,,215
2014-2-4,18,7,-4,4,0,-8,87,68,46,30.44,30.36,30.29,10,10,10,9,2,,0.00,4,,10
2014-2-5,12,0,-12,3,-2,-18,85,72,61,30.47,30.39,30.29,10,10,4,10,6,,0.00,5,Snow,309
2014-2-6,5,-6,-16,-8,-12,-22,85,71,52,30.43,30.35,30.26,10,10,10,17,4,24,0.00,0,Snow,250
2014-2-7,14,0,-15,-3,-9,-22,85,65,38,30.26,30.23,30.19,10,10,10,15,5,21,0.00,0,,244
2014-2-8,13,-4,-20,8,-9,-27,88,79,69,30.22,30.16,30.10,10,8,1,5,0,,0.00,3,Snow,151
2014-2-9,13,0,-15,5,-7,-19,92,71,46,30.34,30.21,30.14,10,8,2,15,3,20,0.00,3,Snow,296
2014-2-10,8,-8,-25,-7,-18,-31,82,66,44,30.48,30.41,30.34,10,10,2,10,2,,0.00,0,Snow,277
2014-2-11,14,-6,-27,-5,-15,-34,76,59,40,30.48,30.37,30.20,10,10,10,10,2,16,0.00,0,,186
2014-2-12,22,10,-1,11,3,-5,90,69,53,30.20,30.08,29.91,10,9,1,9,3,,0.01,4,Snow,209
2014-2-13,30,16,3,24,13,0,94,80,66,29.91,29.64,29.42,10,9,1,17,6,25,0.00,7,Snow,221
2014-2-14,19,6,-8,5,0,-13,92,72,52,30.02,29.84,29.67,10,9,2,16,5,20,0.00,1,Snow,295
2014-2-15,21,3,-15,15,-1,-21,93,76,47,30.04,29.96,29.88,10,8,0,10,2,,0.00,4,Snow,167
2014-2-16,24,16,7,14,9,5,92,71,52,30.24,30.15,29.98,10,10,5,14,5,18,0.03,3,Snow,82
2014-2-17,25,20,16,22,18,9,99,84,70,30.16,29.86,29.69,10,6,0,13,6,20,0.00,8,Snow,151
2014-2-18,42,21,0,27,18,-3,99,75,49,29.85,29.68,29.55,10,8,0,12,2,17,0.10,2,Fog,224
2014-2-19,46,28,11,27,22,10,100,70,32,29.88,29.83,29.71,10,10,7,12,3,,0.00,0,,221
2014-2-20,37,34,32,34,28,21,100,80,60,29.81,29.50,29.05,10,8,1,26,7,37,0.16,7,Rain-Snow-Thunderstorm,88
2014-2-21,32,22,12,32,12,7,99,77,65,29.75,29.48,29.09,10,7,2,23,15,32,0.05,5,Snow,255
2014-2-22,22,16,9,10,6,3,77,67,51,30.10,29.94,29.75,10,10,10,15,9,24,0.00,0,,256
2014-2-23,19,8,-3,4,2,-6,87,66,49,30.21,30.17,30.10,10,10,10,16,7,23,0.00,0,,260
2014-2-24,18,7,-4,4,0,-8,92,65,47,30.27,30.24,30.21,10,10,4,14,6,18,0.00,2,Snow,267
2014-2-25,10,4,-3,6,-5,-11,87,65,47,30.27,30.24,30.18,10,9,4,16,7,22,0.00,2,Snow,273
2014-2-26,15,3,-9,12,-7,-18,86,61,36,30.26,29.92,29.58,10,9,1,23,8,37,0.00,3,Snow,254
2014-2-27,5,-6,-18,-13,-19,-24,76,50,31,30.16,30.07,29.76,10,10,4,24,10,37,0.00,0,,295
2014-2-28,16,-2,-20,13,-5,-26,94,70,44,30.13,30.02,29.92,10,8,0,10,2,,0.00,5,Snow,165